Time;durP1;ratioP1;P1;durP2;ratioP2;P2;SDS_P1;SDS_P2;PMS_P1;PMS_P2;Temp;Humidity;BMP_temperature;BMP_pressure;BME280_temperature;BME280_humidity;BME280_pressure;Samples;Min_cycle;Max_cycle;Signal;HPM_P1;HPM_P2
2021/01/09 00:02:08;;;;;;;0.40;0.40;;;;;;;7.43;88.33;96352.66;5024972;28;20043;-63
2021/01/09 00:04:34;;;;;;;2.35;0.70;;;;;;;7.42;89.12;96367.59;5025773;28;20473;-63
2021/01/09 00:06:59;;;;;;;0.77;0.60;;;;;;;6.94;93.15;96296.66;5025098;28;20412;-63
2021/01/09 00:09:25;;;;;;;0.75;0.63;;;;;;;7.20;94.08;96354.59;5025525;28;20069;-62
2021/01/09 00:11:51;;;;;;;0.52;0.50;;;;;;;6.89;95.04;96320.97;5024716;28;20407;-63
2021/01/09 00:14:19;;;;;;;1.13;0.60;;;;;;;7.05;95.63;96369.25;5025539;28;20037;-61
2021/01/09 00:16:48;;;;;;;1.55;0.50;;;;;;;6.95;95.68;96369.84;5007216;28;20115;-62
2021/01/09 00:19:14;;;;;;;1.33;0.50;;;;;;;6.44;97.72;96307.88;5007391;28;20423;-62
2021/01/09 00:21:40;;;;;;;1.08;0.60;;;;;;;6.77;99.19;96376.94;5025283;28;20021;-62
2021/01/09 00:24:07;;;;;;;0.55;0.50;;;;;;;6.77;99.41;96379.69;5025537;28;20037;-62
2021/01/09 00:26:33;;;;;;;0.85;0.63;;;;;;;6.72;99.79;96374.47;5006735;28;20034;-62
2021/01/09 00:28:59;;;;;;;1.52;0.50;;;;;;;6.74;100.00;96377.69;5025278;28;20029;-62
2021/01/09 00:31:24;;;;;;;1.45;0.73;;;;;;;5.88;99.89;96243.44;5006658;28;20436;-63
2021/01/09 00:33:50;;;;;;;1.35;0.60;;;;;;;6.74;100.00;96391.44;5024943;28;20021;-62
2021/01/09 00:36:16;;;;;;;1.83;0.60;;;;;;;6.58;100.00;96354.94;5024700;28;20393;-63
2021/01/09 00:38:41;;;;;;;1.00;0.60;;;;;;;6.76;100.00;96378.13;5024923;28;20037;-62
2021/01/09 00:41:07;;;;;;;0.90;0.70;;;;;;;6.80;100.00;96384.47;5024512;28;20072;-62
2021/01/09 00:43:32;;;;;;;0.77;0.60;;;;;;;6.57;100.00;96353.34;5006978;28;20053;-64
2021/01/09 00:45:57;;;;;;;2.08;0.68;;;;;;;6.61;100.00;96376.22;5024666;28;20474;-63
2021/01/09 00:48:23;;;;;;;9.68;4.80;;;;;;;6.81;100.00;96399.81;5024404;28;20463;-63
2021/01/09 00:50:48;;;;;;;11.52;5.18;;;;;;;6.90;100.00;96411.44;5024556;28;20041;-62
2021/01/09 00:53:13;;;;;;;7.78;2.42;;;;;;;6.81;100.00;96369.56;5023937;28;20030;-64
2021/01/09 00:55:39;;;;;;;11.65;1.98;;;;;;;6.79;100.00;96385.66;5024540;28;20468;-63
2021/01/09 00:58:04;;;;;;;4.47;1.42;;;;;;;6.79;100.00;96338.84;5043589;28;20560;-63
2021/01/09 01:00:30;;;;;;;1.80;1.08;;;;;;;6.72;100.00;96402.00;5059154;28;20567;-63
2021/01/09 01:02:55;;;;;;;2.75;1.20;;;;;;;7.28;99.91;96394.91;5044383;28;20025;-64
2021/01/09 01:05:20;;;;;;;1.50;0.90;;;;;;;7.14;100.00;96397.38;5058978;28;20048;-63
2021/01/09 01:07:46;;;;;;;3.00;1.30;;;;;;;7.09;100.00;96408.69;5059582;28;20488;-62
2021/01/09 01:10:13;;;;;;;3.40;1.67;;;;;;;7.06;100.00;96406.66;5044194;28;20041;-61
2021/01/09 01:12:39;;;;;;;5.07;1.98;;;;;;;7.08;100.00;96407.06;5044494;28;20431;-63
2021/01/09 01:15:05;;;;;;;4.90;1.98;;;;;;;6.99;100.00;96406.50;5044083;28;20040;-62
2021/01/09 01:17:30;;;;;;;2.58;1.50;;;;;;;6.91;99.11;96413.03;5044175;28;20029;-62
2021/01/09 01:19:56;;;;;;;1.80;0.70;;;;;;;6.62;94.24;96393.53;5044249;28;20048;-62
2021/01/09 01:22:21;;;;;;;0.45;0.45;;;;;;;5.71;92.25;96334.44;5043986;28;20037;-63
2021/01/09 01:24:46;;;;;;;0.68;0.50;;;;;;;6.00;93.37;96388.97;5044384;28;20049;-63
2021/01/09 01:27:12;;;;;;;1.50;0.50;;;;;;;6.03;95.47;96393.75;5043582;28;20108;-61
2021/01/09 01:29:37;;;;;;;0.40;0.40;;;;;;;5.70;96.81;96368.59;5042933;28;20397;-62
2021/01/09 01:32:03;;;;;;;0.90;0.60;;;;;;;5.97;98.89;96417.19;5044049;28;20032;-63
2021/01/09 01:34:28;;;;;;;3.92;0.70;;;;;;;6.15;97.82;96421.13;5044442;28;20037;-63
2021/01/09 01:36:53;;;;;;;0.80;0.55;;;;;;;6.14;100.00;96422.31;5044296;28;20082;-62
2021/01/09 01:39:19;;;;;;;0.65;0.65;;;;;;;6.25;100.00;96434.34;5044180;28;20520;-63
2021/01/09 01:41:45;;;;;;;1.40;0.93;;;;;;;6.29;100.00;96440.75;5043732;28;20544;-62
2021/01/09 01:44:11;;;;;;;4.38;2.00;;;;;;;6.22;100.00;96415.81;5042449;28;20385;-62
2021/01/09 01:46:38;;;;;;;3.15;1.60;;;;;;;6.23;100.00;96414.66;5039681;28;20046;-62
2021/01/09 01:49:06;;;;;;;3.50;2.22;;;;;;;6.32;100.00;96429.03;5024376;28;20308;-64
2021/01/09 01:51:31;;;;;;;4.50;2.33;;;;;;;6.37;100.00;96431.47;5023311;28;20026;-62
2021/01/09 01:53:57;;;;;;;3.95;1.95;;;;;;;6.43;100.00;96435.56;5024154;28;20030;-62
2021/01/09 01:56:22;;;;;;;5.53;2.80;;;;;;;6.53;100.00;96435.00;5024933;28;20037;-62
2021/01/09 01:58:48;;;;;;;5.47;3.15;;;;;;;6.67;100.00;96438.06;5043905;28;20040;-64
2021/01/09 02:01:16;;;;;;;3.00;1.77;;;;;;;6.68;100.00;96436.91;5043357;28;20033;-62
2021/01/09 02:03:42;;;;;;;1.70;1.27;;;;;;;6.23;100.00;96386.38;5045412;28;20033;-62
2021/01/09 02:06:15;;;;;;;1.92;1.00;;;;;;;6.24;100.00;96402.50;5047348;28;20032;-61
2021/01/09 02:08:53;;;;;;;;;;;;;;;6.53;100.00;96451.50;5048178;28;20122;-62
2021/01/09 02:11:53;;;;;;;3.95;1.08;;;;;;;6.48;100.00;96451.78;5045561;28;19916;-63
2021/01/09 02:14:31;;;;;;;3.30;1.20;;;;;;;6.42;100.00;96472.47;5047128;28;20052;-63
2021/01/09 02:16:57;;;;;;;1.75;1.10;;;;;;;6.29;100.00;96462.75;5047058;28;20028;-62
2021/01/09 02:19:25;;;;;;;3.47;1.38;;;;;;;5.95;100.00;96416.72;5045830;28;20037;-64
2021/01/09 02:21:51;;;;;;;13.38;5.95;;;;;;;6.24;100.00;96464.94;5045447;28;20124;-63
2021/01/09 02:24:18;;;;;;;12.15;5.88;;;;;;;6.26;100.00;96457.94;5046980;28;20115;-63
2021/01/09 02:26:44;;;;;;;9.30;3.63;;;;;;;6.13;100.00;96415.22;5046898;28;20065;-62
2021/01/09 02:29:13;;;;;;;10.55;4.18;;;;;;;6.26;100.00;96457.94;5047206;28;20036;-63
2021/01/09 02:32:04;;;;;;;8.63;1.92;;;;;;;6.19;99.55;96463.28;5046868;28;20032;-62
2021/01/09 02:34:38;;;;;;;1.73;0.82;;;;;;;6.14;100.00;96471.78;5047748;28;20507;-62
2021/01/09 02:37:04;;;;;;;1.23;0.60;;;;;;;5.99;100.00;96469.84;5047156;28;20078;-62
2021/01/09 02:39:31;;;;;;;2.80;1.17;;;;;;;5.04;100.00;96417.84;5047147;28;20044;-62
2021/01/09 02:41:57;;;;;;;1.40;0.85;;;;;;;5.81;100.00;96496.84;5046711;28;20059;-61
2021/01/09 02:44:23;;;;;;;2.13;1.20;;;;;;;5.30;100.00;96442.06;5047257;28;20063;-61
2021/01/09 02:46:49;;;;;;;1.75;0.85;;;;;;;5.71;100.00;96500.09;5046509;28;20496;-61
2021/01/09 02:49:14;;;;;;;3.65;1.25;;;;;;;4.82;100.00;96351.75;5046868;28;20039;-60
2021/01/09 02:51:40;;;;;;;1.70;1.08;;;;;;;5.01;100.00;96395.81;5044732;28;20060;-61
2021/01/09 02:54:05;;;;;;;3.72;0.90;;;;;;;5.79;100.00;96503.84;5045161;28;20060;-61
2021/01/09 02:56:31;;;;;;;5.30;1.70;;;;;;;5.39;100.00;96440.00;5046140;28;20036;-61
2021/01/09 02:58:56;;;;;;;4.05;2.00;;;;;;;5.75;100.00;96519.44;5046396;28;20068;-61
2021/01/09 03:01:26;;;;;;;3.60;0.95;;;;;;;5.73;100.00;96486.00;5046069;28;20041;-62
2021/01/09 03:03:51;;;;;;;2.10;1.00;;;;;;;5.40;100.00;96453.38;5046472;28;20091;-62
2021/01/09 03:06:17;;;;;;;2.08;0.90;;;;;;;5.88;100.00;96510.00;5046106;28;20033;-61
2021/01/09 03:08:42;;;;;;;5.22;2.05;;;;;;;5.86;100.00;96526.06;5046425;28;20197;-61
2021/01/09 03:11:08;;;;;;;7.03;3.00;;;;;;;5.88;100.00;96537.50;5045952;28;20078;-61
2021/01/09 03:13:33;;;;;;;1.20;0.85;;;;;;;5.86;100.00;96548.03;5028079;28;20480;-62
2021/01/09 03:15:59;;;;;;;1.33;0.63;;;;;;;5.68;100.00;96552.19;5043401;28;20124;-62
2021/01/09 03:18:25;;;;;;;1.00;0.68;;;;;;;5.75;100.00;96547.69;5046510;28;20044;-62
2021/01/09 03:20:50;;;;;;;2.78;1.50;;;;;;;5.65;100.00;96525.44;5046079;28;20041;-61
2021/01/09 03:23:16;;;;;;;5.53;2.72;;;;;;;5.49;100.00;96502.63;5028303;28;20041;-61
2021/01/09 03:25:41;;;;;;;2.47;1.42;;;;;;;5.52;100.00;96493.69;5046036;28;20373;-62
2021/01/09 03:28:06;;;;;;;1.42;1.00;;;;;;;5.69;100.00;96505.16;5045586;28;20068;-62
2021/01/09 03:30:32;;;;;;;0.60;0.47;;;;;;;5.07;93.00;96428.13;5045341;28;20068;-61
2021/01/09 03:32:57;;;;;;;1.08;0.40;;;;;;;5.56;95.42;96517.38;5046297;28;20041;-61
2021/01/09 03:35:23;;;;;;;6.25;0.60;;;;;;;5.42;93.84;96535.41;5045787;28;20098;-61
2021/01/09 03:37:48;;;;;;;0.50;0.50;;;;;;;5.48;97.23;96526.56;5045909;28;20029;-62
2021/01/09 03:40:14;;;;;;;2.05;0.80;;;;;;;5.52;99.28;96543.13;5045614;28;20203;-61
2021/01/09 03:42:39;;;;;;;1.58;1.00;;;;;;;5.11;98.70;96472.13;5045780;28;20033;-62
2021/01/09 03:45:05;;;;;;;1.92;0.85;;;;;;;5.54;98.14;96525.16;5045633;28;20029;-62
2021/01/09 03:47:31;;;;;;;0.95;0.60;;;;;;;5.34;100.00;96497.91;5027345;28;20044;-62
2021/01/09 03:49:56;;;;;;;0.65;0.40;;;;;;;5.27;100.00;96525.16;5045925;28;20511;-62
2021/01/09 03:52:22;;;;;;;0.95;0.40;;;;;;;5.29;100.00;96539.34;5043999;28;20102;-62
2021/01/09 03:54:47;;;;;;;1.40;0.57;;;;;;;4.89;100.00;96524.78;5046108;28;20377;-62
2021/01/09 03:57:12;;;;;;;13.40;4.18;;;;;;;5.21;100.00;96551.25;5047971;28;20040;-62
2021/01/09 03:59:38;;;;;;;0.90;0.60;;;;;;;5.33;100.00;96570.41;5060534;28;20057;-62
2021/01/09 04:02:03;;;;;;;8.20;2.42;;;;;;;5.24;100.00;96570.59;5043714;28;20090;-62
2021/01/09 04:04:29;;;;;;;12.43;4.10;;;;;;;5.11;100.00;96554.47;5044207;28;20083;-63
2021/01/09 04:06:54;;;;;;;10.25;3.58;;;;;;;5.17;100.00;96575.06;5045115;28;20039;-62
2021/01/09 04:09:19;;;;;;;8.25;2.95;;;;;;;5.22;100.00;96566.56;5045565;28;20458;-61
2021/01/09 04:11:45;;;;;;;4.78;1.33;;;;;;;4.75;100.00;96508.72;5043628;28;20033;-61
2021/01/09 04:14:10;;;;;;;2.78;1.20;;;;;;;5.17;100.00;96566.84;5043797;28;20664;-61
2021/01/09 04:16:36;;;;;;;11.73;4.78;;;;;;;5.19;100.00;96553.53;5042609;28;20025;-62
2021/01/09 04:19:03;;;;;;;3.55;1.70;;;;;;;5.15;100.00;96556.19;5045144;28;20094;-62
2021/01/09 04:21:28;;;;;;;5.22;2.53;;;;;;;4.97;100.00;96532.09;5059611;28;20464;-62
2021/01/09 04:23:53;;;;;;;5.30;2.78;;;;;;;5.22;100.00;96566.56;5044965;28;20045;-62
2021/01/09 04:26:19;;;;;;;5.38;1.98;;;;;;;5.32;100.00;96571.59;5043055;28;20431;-63
2021/01/09 04:28:44;;;;;;;3.28;1.40;;;;;;;5.12;100.00;96512.16;5044964;28;20035;-62
2021/01/09 04:31:14;;;;;;;1.65;0.88;;;;;;;5.53;100.00;96567.50;5044602;28;20462;-62
2021/01/09 04:33:39;;;;;;;1.25;0.80;;;;;;;5.16;100.00;96504.81;5044908;28;20475;-63
2021/01/09 04:36:05;;;;;;;2.53;0.90;;;;;;;5.54;100.00;96585.59;5044733;28;20098;-62
2021/01/09 04:38:31;;;;;;;2.50;1.35;;;;;;;5.51;100.00;96582.72;5043278;28;20025;-62
2021/01/09 04:41:00;;;;;;;69.10;37.58;;;;;;;5.52;100.00;96604.34;5025051;28;20059;-62
2021/01/09 04:43:26;;;;;;;8.57;5.05;;;;;;;5.59;100.00;96595.53;5025054;28;20039;-60
2021/01/09 04:45:51;;;;;;;3.58;1.10;;;;;;;5.59;100.00;96598.28;5024387;28;20034;-61
2021/01/09 04:48:18;;;;;;;2.38;1.40;;;;;;;5.52;100.00;96598.06;5024745;28;20052;-61
2021/01/09 04:50:49;;;;;;;6.43;3.75;;;;;;;5.51;100.00;96590.97;5024668;28;20034;-61
2021/01/09 04:53:15;;;;;;;8.75;6.28;;;;;;;5.22;100.00;96572.06;5023364;28;20091;-62
2021/01/09 04:55:43;;;;;;;4.70;3.10;;;;;;;5.06;100.00;96530.81;5024703;28;20034;-62
2021/01/09 04:58:10;;;;;;;12.77;7.03;;;;;;;5.28;100.00;96548.72;5028688;28;20028;-62
2021/01/09 05:00:36;;;;;;;12.38;8.93;;;;;;;5.60;100.00;96621.84;5044312;28;20049;-62
2021/01/09 05:03:02;;;;;;;10.13;6.47;;;;;;;5.34;100.00;96558.31;5044591;28;20044;-63
2021/01/09 05:05:27;;;;;;;13.90;7.07;;;;;;;5.60;100.00;96605.34;5044027;28;20040;-61
2021/01/09 05:07:52;;;;;;;6.07;2.55;;;;;;;5.49;100.00;96609.75;5043973;28;20056;-62
2021/01/09 05:10:18;;;;;;;4.15;2.38;;;;;;;5.11;100.00;96557.22;5043697;28;20091;-63
2021/01/09 05:12:43;;;;;;;4.88;1.95;;;;;;;5.43;100.00;96622.13;5026269;28;20094;-62
2021/01/09 05:15:09;;;;;;;4.70;1.85;;;;;;;5.48;100.00;96630.13;5025783;28;20106;-62
2021/01/09 05:17:35;;;;;;;12.45;4.82;;;;;;;4.98;100.00;96561.16;5026165;28;20025;-64
2021/01/09 05:20:01;;;;;;;5.22;2.95;;;;;;;5.57;100.00;96644.50;5026247;28;20041;-63
2021/01/09 05:22:27;;;;;;;12.63;6.40;;;;;;;5.73;100.00;96637.13;5026252;28;20025;-62
2021/01/09 05:24:53;;;;;;;12.95;7.78;;;;;;;5.64;100.00;96644.72;5044279;28;20068;-62
2021/01/09 05:27:20;;;;;;;43.70;30.65;;;;;;;5.72;100.00;96660.28;5025972;28;20079;-62
2021/01/09 05:29:53;;;;;;;8.18;5.55;;;;;;;5.49;100.00;96654.50;5044207;28;20157;-63
2021/01/09 05:32:19;;;;;;;73.18;29.50;;;;;;;5.55;100.00;96669.56;5025544;28;20032;-64
2021/01/09 05:34:53;;;;;;;28.15;17.45;;;;;;;5.47;100.00;96661.50;5044319;28;20040;-63
2021/01/09 05:37:20;;;;;;;7.82;5.07;;;;;;;4.98;98.01;96627.03;5043818;28;20559;-62
2021/01/09 05:39:53;;;;;;;20.00;10.00;;;;;;;5.16;100.00;96666.78;5047008;28;20048;-63
2021/01/09 05:42:20;;;;;;;;;;;;;;;5.01;98.08;96678.47;5048200;28;20029;-65
2021/01/09 05:44:45;;;;;;;25.50;16.48;;;;;;;4.88;100.00;96687.84;5048047;28;19925;-63
2021/01/09 05:47:11;;;;;;;4.32;2.35;;;;;;;4.90;100.00;96696.53;5047165;28;20525;-62
2021/01/09 05:49:42;;;;;;;8.48;4.05;;;;;;;4.72;100.00;96712.41;5048192;28;20068;-63
2021/01/09 05:52:08;;;;;;;20.25;14.77;;;;;;;4.89;100.00;96716.88;5029122;28;20029;-63
2021/01/09 05:54:35;;;;;;;10.13;6.70;;;;;;;4.82;100.00;96733.09;5047877;28;20044;-63
2021/01/09 05:57:01;;;;;;;9.75;5.55;;;;;;;4.72;100.00;96717.06;5029155;28;20116;-64
2021/01/09 05:59:27;;;;;;;13.88;9.02;;;;;;;4.21;100.00;96671.84;5047946;28;20646;-63
2021/01/09 06:01:57;;;;;;;7.38;4.25;;;;;;;4.17;99.99;96649.78;5045962;28;20115;-63
2021/01/09 06:04:27;;;;;;;5.88;2.70;;;;;;;4.63;100.00;96731.69;5047680;28;20045;-62
2021/01/09 06:07:11;;;;;;;6.97;4.03;;;;;;;4.59;100.00;96736.28;5027539;28;20032;-62
2021/01/09 06:09:49;;;;;;;;;;;;;;;4.39;100.00;96748.06;5010448;28;20037;-62
2021/01/09 06:12:20;;;;;;;2.13;1.10;;;;;;;4.21;100.00;96741.16;5027362;28;19924;-63
2021/01/09 06:14:48;;;;;;;3.10;1.35;;;;;;;4.32;100.00;96769.78;5027555;28;20124;-64
2021/01/09 06:17:17;;;;;;;5.45;2.65;;;;;;;4.20;100.00;96783.44;5025797;28;20479;-63
2021/01/09 06:19:42;;;;;;;11.07;7.53;;;;;;;4.02;100.00;96732.63;5009508;28;20045;-62
2021/01/09 06:22:08;;;;;;;23.08;14.77;;;;;;;4.38;100.00;96778.56;5027039;28;20076;-63
2021/01/09 06:24:34;;;;;;;12.80;8.75;;;;;;;4.20;100.00;96761.50;5025786;28;20610;-63
2021/01/09 06:27:00;;;;;;;7.70;4.28;;;;;;;3.96;100.00;96720.28;5025613;28;20527;-62
2021/01/09 06:29:27;;;;;;;23.00;14.10;;;;;;;4.54;100.00;96794.06;5007448;28;20116;-63
2021/01/09 06:31:55;;;;;;;8.55;4.93;;;;;;;4.57;100.00;96804.38;5026290;28;20059;-63
2021/01/09 06:34:23;;;;;;;2.08;1.58;;;;;;;4.57;100.00;96815.34;5027219;28;20046;-63
2021/01/09 06:37:02;;;;;;;34.38;16.70;;;;;;;4.55;100.00;96812.13;5026836;28;20111;-64
2021/01/09 06:39:33;;;;;;;13.27;8.30;;;;;;;3.96;100.00;96728.50;5031689;28;20047;-61
2021/01/09 06:42:00;;;;;;;13.45;6.72;;;;;;;4.05;100.00;96775.81;5042863;28;20029;-61
2021/01/09 06:44:26;;;;;;;3.97;1.98;;;;;;;4.43;100.00;96836.75;5046479;28;20037;-61
2021/01/09 06:46:54;;;;;;;8.43;4.15;;;;;;;4.52;100.00;96829.25;5045059;28;20052;-61
2021/01/09 06:49:22;;;;;;;13.93;6.97;;;;;;;3.95;100.00;96746.06;5045788;28;20041;-61
2021/01/09 06:52:02;;;;;;;18.52;8.85;;;;;;;4.61;100.00;96843.72;5046120;28;20488;-61
2021/01/09 06:54:37;;;;;;;23.95;13.63;;;;;;;4.67;100.00;96841.53;5046746;28;20056;-61
2021/01/09 06:57:02;;;;;;;20.30;11.40;;;;;;;4.85;100.00;96859.44;5046332;28;20056;-62
2021/01/09 06:59:39;;;;;;;29.92;15.32;;;;;;;4.93;100.00;96876.97;5024918;28;20045;-61
2021/01/09 07:02:14;;;;;;;20.27;9.65;;;;;;;4.87;100.00;96868.13;5026409;28;20045;-61
2021/01/09 07:04:52;;;;;;;13.52;7.20;;;;;;;4.66;100.00;96867.38;5026832;28;20034;-61
2021/01/09 07:07:29;;;;;;;5.53;3.70;;;;;;;4.49;100.00;96876.53;5026109;28;20029;-60
2021/01/09 07:10:19;;;;;;;3.10;1.20;;;;;;;4.23;100.00;96859.50;5026685;28;20112;-61
2021/01/09 07:12:54;;;;;;;26.38;16.00;;;;;;;4.59;100.00;96878.88;5016172;28;20037;-61
2021/01/09 07:15:20;;;;;;;13.90;9.57;;;;;;;4.58;100.00;96893.72;5045227;28;20039;-62
2021/01/09 07:17:50;;;;;;;30.75;12.98;;;;;;;4.00;100.00;96783.44;5032822;28;20026;-63
2021/01/09 07:20:19;;;;;;;50.50;22.92;;;;;;;4.75;100.00;96891.97;5021378;28;20583;-64
2021/01/09 07:22:46;;;;;;;17.25;9.15;;;;;;;4.02;100.00;96773.75;5046489;28;20029;-65
2021/01/09 07:25:12;;;;;;;40.20;25.05;;;;;;;4.95;100.00;96885.66;5038279;28;20389;-61
2021/01/09 07:27:44;;;;;;;18.33;11.00;;;;;;;3.22;100.00;96670.13;5043927;28;20048;-63
2021/01/09 07:30:18;;;;;;;10.48;5.50;;;;;;;5.13;100.00;96889.81;5024117;28;20140;-60
2021/01/09 07:32:54;;;;;;;20.88;10.05;;;;;;;4.72;100.00;96799.38;5043171;28;20029;-60
2021/01/09 07:35:29;;;;;;;13.13;6.75;;;;;;;5.22;100.00;96876.81;5033649;28;20520;-60
2021/01/09 07:38:01;;;;;;;58.53;39.65;;;;;;;5.38;100.00;96916.19;5045477;28;20033;-60
2021/01/09 07:40:51;;;;;;;20.50;10.50;;;;;;;5.25;100.00;96878.91;5026307;28;20810;-61
2021/01/09 07:43:42;;;;;;;20.48;11.65;;;;;;;5.67;100.00;96918.78;5045086;28;20294;-61
2021/01/09 07:46:23;;;;;;;47.45;25.25;;;;;;;5.79;100.00;96927.03;5026608;28;20139;-62
2021/01/09 07:48:48;;;;;;;12.85;8.57;;;;;;;5.62;100.00;96924.50;5045293;28;20057;-59
2021/01/09 07:51:14;;;;;;;33.13;23.05;;;;;;;4.80;97.54;96845.13;5026228;28;20040;-59
2021/01/09 07:53:45;;;;;;;12.30;10.18;;;;;;;5.27;96.90;96942.50;5045438;28;20033;-59
2021/01/09 07:56:11;;;;;;;11.57;9.15;;;;;;;5.26;98.28;96943.63;5044678;28;20040;-59
2021/01/09 07:58:46;;;;;;;18.90;12.82;;;;;;;5.30;100.00;96950.03;5045355;28;20037;-61
2021/01/09 08:01:12;;;;;;;15.18;7.57;;;;;;;5.32;99.00;96940.34;5026169;28;20565;-61
2021/01/09 08:03:39;;;;;;;12.00;5.30;;;;;;;5.32;99.05;96973.31;5023233;28;20030;-61
2021/01/09 08:06:05;;;;;;;4.40;2.88;;;;;;;5.18;93.32;96950.03;5043123;28;20179;-61
2021/01/09 08:08:31;;;;;;;16.95;14.90;;;;;;;3.73;94.30;96751.88;5044471;28;20039;-60
2021/01/09 08:10:56;;;;;;;12.05;9.20;;;;;;;5.04;96.84;96955.00;5044521;28;20037;-62
2021/01/09 08:13:22;;;;;;;8.52;5.57;;;;;;;5.17;96.02;96973.13;5043676;28;20052;-59
2021/01/09 08:15:48;;;;;;;31.00;12.07;;;;;;;4.97;97.69;96927.28;5044134;28;20431;-61
2021/01/09 08:18:14;;;;;;;9.25;3.45;;;;;;;5.28;98.77;96977.06;5044453;28;20049;-58
2021/01/09 08:20:39;;;;;;;11.98;7.07;;;;;;;3.89;97.86;96815.91;5044353;28;20148;-60
2021/01/09 08:23:08;;;;;;;9.95;6.13;;;;;;;5.44;99.53;96980.75;5023367;28;20034;-60
2021/01/09 08:25:35;;;;;;;8.88;4.70;;;;;;;5.44;98.99;96964.28;5006686;28;20042;-60
2021/01/09 08:28:03;;;;;;;15.63;6.25;;;;;;;5.61;98.83;96980.59;5025942;28;20443;-62
2021/01/09 08:30:31;;;;;;;20.95;8.55;;;;;;;4.79;98.49;96879.22;5034250;28;20438;-60
2021/01/09 08:33:10;;;;;;;39.80;21.58;;;;;;;5.78;97.79;96988.63;5026534;28;20017;-59
2021/01/09 08:35:40;;;;;;;17.67;10.40;;;;;;;4.83;95.39;96877.38;5042713;28;20033;-60
2021/01/09 08:38:06;;;;;;;1.20;0.60;;;;;;;5.11;93.32;97008.22;5034274;28;20036;-58
2021/01/09 08:40:33;;;;;;;24.38;13.48;;;;;;;2.92;96.72;96874.47;5042405;28;20041;-60
2021/01/09 08:43:04;;;;;;;59.08;28.40;;;;;;;5.59;98.78;97005.66;5044249;28;20115;-60
2021/01/09 08:46:04;;;;;;;25.08;12.70;;;;;;;5.64;96.89;97010.13;5044003;28;20098;-58
2021/01/09 08:48:34;;;;;;;20.30;9.23;;;;;;;5.73;98.90;97005.34;5043768;28;20088;-59
2021/01/09 08:51:00;;;;;;;43.60;24.48;;;;;;;5.78;100.00;97003.19;5043725;28;20056;-61
2021/01/09 08:53:30;;;;;;;24.95;11.23;;;;;;;5.91;100.00;96996.59;5044683;28;20048;-60
2021/01/09 08:56:00;;;;;;;25.00;12.38;;;;;;;6.15;99.31;97012.31;5043167;28;20029;-61
2021/01/09 08:58:29;;;;;;;32.58;17.85;;;;;;;6.21;96.79;97010.97;5041449;28;20048;-57
2021/01/09 09:00:56;;;;;;;11.80;6.22;;;;;;;6.13;94.49;96989.88;5043188;28;20029;-57
2021/01/09 09:03:22;;;;;;;18.77;8.65;;;;;;;5.99;93.46;96975.66;5042831;28;20507;-57
2021/01/09 09:05:48;;;;;;;24.40;10.88;;;;;;;6.17;92.72;96988.03;5024377;28;20036;-58
2021/01/09 09:08:16;;;;;;;24.00;14.00;;;;;;;5.78;92.43;96914.44;5043543;28;20056;-59
2021/01/09 09:10:44;;;;;;;8.00;4.32;;;;;;;6.07;88.41;96964.53;5022737;28;20175;-58
2021/01/09 09:13:23;;;;;;;7.05;3.47;;;;;;;6.38;88.25;97013.47;5023588;28;20044;-61
2021/01/09 09:15:50;;;;;;;21.83;11.98;;;;;;;6.54;90.27;97014.41;5033475;28;20035;-59
2021/01/09 09:18:17;;;;;;;23.73;12.95;;;;;;;6.66;91.50;97017.13;5043622;28;20040;-61
2021/01/09 09:20:45;;;;;;;17.90;9.98;;;;;;;6.58;90.96;97015.31;5042911;28;20061;-60
2021/01/09 09:23:21;;;;;;;8.82;5.20;;;;;;;6.87;89.39;97000.47;5043028;28;20523;-60
2021/01/09 09:26:05;;;;;;;12.35;7.22;;;;;;;6.86;91.10;96972.13;5025984;28;20095;-61
2021/01/09 09:28:41;;;;;;;8.48;4.00;;;;;;;7.00;88.08;96993.78;5043849;28;20504;-60
2021/01/09 09:31:28;;;;;;;2.65;0.90;;;;;;;6.80;88.65;96992.78;5025352;28;20048;-59
2021/01/09 09:34:26;;;;;;;11.13;5.22;;;;;;;6.69;92.13;96961.38;5043163;28;20461;-62
2021/01/09 09:36:52;;;;;;;17.27;10.50;;;;;;;6.94;91.50;96979.44;5042313;28;20068;-61
2021/01/09 09:39:22;;;;;;;19.08;12.30;;;;;;;6.72;90.80;96933.16;5025247;28;20041;-60
2021/01/09 09:41:51;;;;;;;11.98;7.00;;;;;;;6.70;90.34;96912.66;5042970;28;20511;-60
2021/01/09 09:44:17;;;;;;;15.70;10.27;;;;;;;7.20;89.33;96982.59;5043728;28;20393;-61
2021/01/09 09:46:43;;;;;;;14.23;8.75;;;;;;;7.27;90.25;96982.78;5043559;28;20041;-62
2021/01/09 09:49:08;;;;;;;4.25;2.78;;;;;;;7.26;88.80;96975.69;5043637;28;20087;-59
2021/01/09 09:51:35;;;;;;;6.50;3.92;;;;;;;6.95;88.70;96942.53;5042714;28;20037;-59
2021/01/09 09:54:01;;;;;;;3.17;0.90;;;;;;;6.60;84.78;96891.94;5025429;28;20041;-58
2021/01/09 09:56:35;;;;;;;3.00;2.03;;;;;;;6.95;88.58;96953.53;5024324;28;20041;-58
2021/01/09 09:59:03;;;;;;;2.88;2.03;;;;;;;6.20;87.38;96829.81;5041671;28;20432;-60
2021/01/09 10:01:31;;;;;;;8.40;3.85;;;;;;;7.03;88.51;96977.38;5035444;28;20394;-61
2021/01/09 10:03:57;;;;;;;30.25;17.02;;;;;;;6.58;87.91;96938.25;5006075;28;20240;-60
2021/01/09 10:06:33;;;;;;;41.17;23.58;;;;;;;7.01;88.11;96979.66;5005419;28;20042;-60
2021/01/09 10:09:08;;;;;;;15.05;9.13;;;;;;;7.10;86.49;96969.31;5006268;28;20061;-61
2021/01/09 10:11:34;;;;;;;28.23;20.30;;;;;;;7.10;86.01;96982.25;5023294;28;20135;-60
2021/01/09 10:14:04;;;;;;;49.70;35.28;;;;;;;7.17;86.19;96983.28;5024176;28;20022;-60
2021/01/09 10:16:30;;;;;;;33.38;23.17;;;;;;;7.35;84.13;96992.06;5023310;28;20099;-60
2021/01/09 10:18:55;;;;;;;43.92;20.48;;;;;;;7.05;84.65;96953.03;5011360;28;21294;-60
2021/01/09 10:21:25;;;;;;;24.10;10.27;;;;;;;7.22;87.02;96985.78;5043625;28;20056;-60
2021/01/09 10:23:50;;;;;;;35.40;22.15;;;;;;;7.24;85.79;96988.22;5024078;28;20044;-61
2021/01/09 10:26:30;;;;;;;7.18;4.88;;;;;;;6.47;86.20;96849.09;5045937;28;20487;-61
2021/01/09 10:28:56;;;;;;;17.52;10.98;;;;;;;6.81;83.82;96917.31;5005401;28;20133;-61
2021/01/09 10:31:28;;;;;;;13.68;8.40;;;;;;;6.79;84.91;96911.38;5024765;28;20112;-62
2021/01/09 10:33:53;;;;;;;18.40;11.20;;;;;;;7.51;86.33;96993.69;5026846;28;20136;-62
2021/01/09 10:36:23;;;;;;;11.35;7.13;;;;;;;7.82;86.29;97003.19;5026193;28;20112;-61
2021/01/09 10:38:49;;;;;;;8.98;5.15;;;;;;;7.80;82.37;96969.66;5026144;28;20474;-61
2021/01/09 10:41:14;;;;;;;10.75;6.50;;;;;;;7.85;82.30;96974.91;5008774;28;20566;-64
2021/01/09 10:43:39;;;;;;;6.82;4.65;;;;;;;7.70;78.98;96935.94;5026506;28;20389;-62
2021/01/09 10:46:05;;;;;;;4.65;2.63;;;;;;;6.98;78.04;96919.78;5026355;28;20037;-62
2021/01/09 10:48:30;;;;;;;9.70;5.18;;;;;;;6.44;79.41;96866.28;5008296;28;20040;-61
2021/01/09 10:50:55;;;;;;;16.25;5.63;;;;;;;7.10;77.49;96966.56;5026585;28;20515;-64
2021/01/09 10:53:21;;;;;;;1.15;0.82;;;;;;;6.51;78.85;96971.06;5026866;28;20084;-61
2021/01/09 10:55:47;;;;;;;14.02;6.47;;;;;;;6.82;81.65;96985.00;5008538;28;20476;-63
2021/01/09 10:58:13;;;;;;;9.65;5.72;;;;;;;6.90;83.62;96972.22;5026620;28;20041;-64
2021/01/09 11:00:38;;;;;;;21.77;14.70;;;;;;;7.04;83.89;96965.19;5025644;28;20393;-63
2021/01/09 11:03:04;;;;;;;4.28;2.60;;;;;;;4.48;82.99;96554.13;5025786;28;20045;-61
2021/01/09 11:05:31;;;;;;;10.10;5.00;;;;;;;7.21;84.79;96978.66;5025622;28;20405;-60
2021/01/09 11:07:57;;;;;;;16.30;9.25;;;;;;;7.35;84.05;96978.28;5010673;28;20037;-62
2021/01/09 11:10:22;;;;;;;20.65;12.23;;;;;;;7.47;82.90;96976.28;5026385;28;20440;-62
2021/01/09 11:12:48;;;;;;;9.75;7.07;;;;;;;7.44;79.91;96982.50;5025793;28;20038;-60
2021/01/09 11:15:14;;;;;;;19.88;13.65;;;;;;;7.15;80.14;96922.25;5026000;28;20120;-62
2021/01/09 11:17:39;;;;;;;10.32;6.68;;;;;;;7.43;82.53;96978.13;5026243;28;20422;-62
2021/01/09 11:20:05;;;;;;;9.15;6.50;;;;;;;7.50;81.03;96980.28;5025222;28;20112;-63
2021/01/09 11:22:31;;;;;;;7.53;4.10;;;;;;;6.98;80.41;96894.19;5025815;28;20040;-63
2021/01/09 11:24:56;;;;;;;8.77;6.15;;;;;;;7.43;79.72;96997.41;5025725;28;20033;-63
2021/01/09 11:27:21;;;;;;;13.32;8.65;;;;;;;7.44;81.40;97003.72;5025468;28;20034;-65
2021/01/09 11:29:47;;;;;;;18.17;9.60;;;;;;;7.44;79.32;97004.53;5026098;28;20044;-76
2021/01/09 11:32:13;;;;;;;10.60;4.95;;;;;;;7.54;80.16;97026.06;5006561;28;20033;-72
2021/01/09 11:34:39;;;;;;;9.23;5.47;;;;;;;7.63;80.31;97001.91;5023949;28;20029;-73
2021/01/09 11:37:04;;;;;;;18.75;9.18;;;;;;;7.63;80.78;97007.41;5023645;28;20107;-71